»·PEaware :: N56PA KBUR-KLAS

N56PA :: KBUR-KLAS

FLIGHT INFORMATION

Flight Status: Arrived
Operator: Privately registered:
United States
More flights under this callsign
Pilot: Andrew R. (5764)
Aircraft: PILATUS PC-12 EAGLE
(PC12)
More flights by this aircraft type
Origin: KBUR Bob Hope-Burbank
United States
Destination: KLAS McCarran Intl
United States
More flights between these airports :: More routes between these airports
Route: +VNY3 DAG CRESO4
File this flight plan on PilotEdge
Remarks: I-I4 rating
Altitude:
(Current/Filed)
23,000ft
Speed:
(Current/Filed)
245kts
Departed: 01-Feb-19 01:42 PM
Arrived: 01-Feb-19 02:39 PM
Distance/Time
Traveled:
194nm/0:57
Distance/Time
To Go:
Arrived

Flight Plot

Page will automatically refresh every two minutes.

Flight plan parsing failed; only flown route is shown


Map Options




Map Legend


Flown Route
Filed Route
Departure Airport
Arrival Airport
Navaid (VOR, NDB)
Fix

Horizontal Profiles

Position Reports

Time Latitude Longitude Heading Altitude Ground
Speed
01-Feb-19 13:29 34.200202 -118.358746 263 721ft 0kts
01-Feb-19 13:30 34.200202 -118.358746 263 721ft 0kts
01-Feb-19 13:31 34.200202 -118.358746 263 721ft 0kts
01-Feb-19 13:32 34.200202 -118.358746 263 721ft 0kts
01-Feb-19 13:33 34.200202 -118.358746 263 721ft 0kts
01-Feb-19 13:34 34.200202 -118.358746 263 721ft 0kts
01-Feb-19 13:35 34.200195 -118.358932 268 721ft 0kts
01-Feb-19 13:36 34.200195 -118.358932 268 721ft 0kts
01-Feb-19 13:37 34.200195 -118.358932 268 721ft 0kts
01-Feb-19 13:38 34.201301 -118.358557 346 724ft 24kts
01-Feb-19 13:39 34.209402 -118.360784 351 759ft 1kts
01-Feb-19 13:40 34.211729 -118.361429 350 768ft 2kts
01-Feb-19 13:41 34.202274 -118.357620 166 849ft 117kts
01-Feb-19 13:42 34.171895 -118.375363 224 2491ft 142kts
01-Feb-19 13:43 34.144203 -118.410663 224 3985ft 172kts
01-Feb-19 13:44 34.159846 -118.454139 350 4559ft 207kts
01-Feb-19 13:45 34.204970 -118.462980 351 5790ft 196kts
01-Feb-19 13:46 34.252957 -118.471629 351 7433ft 184kts
01-Feb-19 13:47 34.306360 -118.468397 5 9168ft 184kts
01-Feb-19 13:48 34.360793 -118.463007 4 11120ft 177kts
01-Feb-19 13:49 34.400207 -118.433419 54 12733ft 178kts
01-Feb-19 13:50 34.430746 -118.385205 55 14246ft 185kts
01-Feb-19 13:51 34.462404 -118.334801 55 15804ft 192kts
01-Feb-19 13:52 34.495130 -118.282637 55 17340ft 199kts
01-Feb-19 13:53 34.529300 -118.228096 55 18836ft 207kts
01-Feb-19 13:54 34.564582 -118.171651 54 20287ft 214kts
01-Feb-19 13:55 34.600969 -118.113343 54 21651ft 221kts
01-Feb-19 13:56 34.633005 -118.049592 86 22942ft 222kts
01-Feb-19 13:57 34.642346 -117.967157 86 23092ft 269kts
01-Feb-19 13:58 34.652601 -117.872922 85 23085ft 288kts
01-Feb-19 13:59 34.663239 -117.776570 82 23082ft 290kts
01-Feb-19 14:00 34.685377 -117.681377 74 23082ft 293kts
01-Feb-19 14:01 34.709702 -117.586955 74 23084ft 293kts
01-Feb-19 14:02 34.733886 -117.492251 74 23085ft 293kts
01-Feb-19 14:03 34.758096 -117.397064 75 23085ft 293kts
01-Feb-19 14:04 34.782186 -117.302012 75 23083ft 293kts
01-Feb-19 14:05 34.806095 -117.207325 75 23085ft 293kts
01-Feb-19 14:06 34.829926 -117.112593 75 23089ft 293kts
01-Feb-19 14:07 34.853722 -117.017654 76 23092ft 294kts
01-Feb-19 14:08 34.877643 -116.921855 76 23094ft 297kts
01-Feb-19 14:09 34.901707 -116.825112 76 23095ft 299kts
01-Feb-19 14:10 34.925823 -116.727793 76 23095ft 300kts
01-Feb-19 14:11 34.949812 -116.630628 76 23096ft 300kts
01-Feb-19 14:12 34.980996 -116.536417 63 23071ft 302kts
01-Feb-19 14:13 35.021278 -116.446330 63 22853ft 309kts
01-Feb-19 14:14 35.062671 -116.352817 63 21697ft 314kts
01-Feb-19 14:15 35.103905 -116.259601 64 20513ft 311kts
01-Feb-19 14:16 35.144761 -116.166934 64 19282ft 308kts
01-Feb-19 14:17 35.185238 -116.074875 64 17963ft 306kts
01-Feb-19 14:18 35.225043 -115.984109 65 16650ft 301kts
01-Feb-19 14:19 35.264242 -115.894557 65 15436ft 300kts
01-Feb-19 14:20 35.303554 -115.804414 65 14229ft 300kts
01-Feb-19 14:21 35.356942 -115.725246 49 13023ft 301kts
01-Feb-19 14:22 35.413054 -115.650840 50 11834ft 293kts
01-Feb-19 14:23 35.467485 -115.578113 50 10751ft 283kts
01-Feb-19 14:24 35.519519 -115.508431 50 10045ft 265kts
01-Feb-19 14:25 35.568700 -115.442544 50 10044ft 260kts
01-Feb-19 14:26 35.617370 -115.377087 50 10044ft 259kts
01-Feb-19 14:28 35.674137 -115.300609 51 10046ft 259kts
01-Feb-19 14:28 35.714639 -115.245940 51 10046ft 259kts
01-Feb-19 14:29 35.763262 -115.180114 51 10047ft 259kts
01-Feb-19 14:30 35.816032 -115.120415 23 10035ft 267kts
01-Feb-19 14:31 35.889212 -115.089392 21 9043ft 276kts
01-Feb-19 14:32 35.958266 -115.060554 21 8038ft 251kts
01-Feb-19 14:33 36.023263 -115.033189 21 7085ft 249kts
01-Feb-19 14:34 36.067794 -115.078913 283 5860ft 257kts
01-Feb-19 14:35 36.091539 -115.144816 14 4140ft 190kts
01-Feb-19 14:36 36.124671 -115.130412 302 3144ft 97kts
01-Feb-19 14:37 36.105438 -115.153017 205 2312ft 109kts
01-Feb-19 14:38 36.089418 -115.163469 302 2128ft 9kts
01-Feb-19 14:39 36.089451 -115.163534 303 2128ft 0kts
01-Feb-19 14:40 36.089481 -115.163611 292 2129ft 0kts
01-Feb-19 14:41 36.092774 -115.162794 25 2117ft 24kts

Navigation Log

Ident Type
Flight plan parsing failed, navigation log unavailable